Ocean Beaut — WDD7485 — position and weather

sailwx.info

Track history (hours):
 
Tides and Currents Weather Stations Pressure Air Temp Water Temp Dewpoint Dewpoint Depression Visibility Wind Speed Wind Dir Waves Ship Positions

Ocean Beaut

More information available from US FCC via Universal Licensing System.

Last reported at 2014-Aug-18 04:28 UTC. Time now 2014-Aug-28 13:28 UTC.
Position N 46°21' W 124°14'.
Warning: this ship's position is 10 days out of date.

Length 20 m.

Type: Fishing. MMSI: 367187080.

Date/timePositionNaut miles runAvg speedWind from/ knotsBaromVisibWave heightAir tempDewpointWater temp
2014-Aug-18 04:28N 46°21' W 124°14'9 6.7
2014-Aug-18 03:12N 46°15' W 124°06'5 7.3
2014-Aug-18 02:33N 46°14' W 123°59'6 6.0
2014-Aug-18 01:33N 46°11' W 123°51'0 0.0
2014-Aug-18 00:30N 46°11' W 123°51'2 0.4
2014-Aug-17 18:33N 46°12' W 123°48'0 0.0
2014-Aug-17 17:33N 46°12' W 123°48'0 0.0
2014-Aug-17 16:33N 46°12' W 123°48'0 0.0
2014-Aug-17 15:33N 46°12' W 123°48'0 0.0
2014-Aug-17 14:33N 46°12' W 123°48'0 0.0
2014-Aug-17 13:33N 46°12' W 123°48'0 0.0
2014-Aug-17 12:33N 46°12' W 123°48'0 0.0
2014-Aug-17 11:33N 46°12' W 123°48'0 0.0
2014-Aug-17 10:33N 46°12' W 123°48'0 0.0
2014-Aug-17 09:33N 46°12' W 123°48'0 0.0
2014-Aug-17 08:33N 46°12' W 123°48'0 0.0
2014-Aug-17 07:33N 46°12' W 123°48'0 0.0
2014-Aug-17 06:33N 46°12' W 123°48'0 0.0
2014-Aug-17 05:30N 46°12' W 123°48'0 0.0
2014-Aug-17 04:33N 46°12' W 123°48'0 0.0
2014-Aug-17 03:33N 46°12' W 123°48'0 0.0
2014-Aug-17 02:33N 46°12' W 123°48'0 0.0
2014-Aug-17 01:33N 46°12' W 123°48'0 0.0
2014-Aug-17 00:33N 46°12' W 123°48'0 0.0
2014-Aug-16 23:33N 46°12' W 123°48'0 0.0
2014-Aug-16 22:33N 46°12' W 123°48'0 0.0
2014-Aug-16 21:33N 46°12' W 123°48'0 0.0
2014-Aug-16 20:33N 46°12' W 123°48'0 0.0
2014-Aug-16 19:33N 46°12' W 123°48'0 0.0
2014-Aug-16 18:33N 46°12' W 123°48'0 0.0
2014-Aug-16 17:33N 46°12' W 123°48'0 0.0
2014-Aug-16 16:33N 46°12' W 123°48'0 0.0
2014-Aug-16 15:33N 46°12' W 123°48'0 0.0
2014-Aug-16 14:33N 46°12' W 123°48'0 0.0
2014-Aug-16 13:33N 46°12' W 123°48'0 0.0
2014-Aug-16 12:33N 46°12' W 123°48'0 0.0
2014-Aug-16 11:33N 46°12' W 123°48'0 0.0
2014-Aug-16 10:33N 46°12' W 123°48'0 0.0
2014-Aug-16 09:33N 46°12' W 123°48'0 0.0
2014-Aug-16 08:33N 46°12' W 123°48'0 0.0
2014-Aug-16 07:33N 46°12' W 123°48'0 0.0
2014-Aug-16 06:30N 46°12' W 123°48'0 0.0
2014-Aug-16 05:33N 46°12' W 123°48'0 0.0
2014-Aug-16 04:33N 46°12' W 123°48'0 0.0
2014-Aug-16 03:33N 46°12' W 123°48'0 0.0
2014-Aug-16 02:33N 46°12' W 123°48'0 0.0
2014-Aug-16 01:33N 46°12' W 123°48'0 0.0
2014-Aug-16 00:33N 46°12' W 123°48'0 0.0
2014-Aug-15 23:33N 46°12' W 123°48'0 0.0
2014-Aug-15 22:33N 46°12' W 123°48'0 0.0
2014-Aug-15 21:33N 46°12' W 123°48'0 0.0
2014-Aug-15 20:33N 46°12' W 123°48'0 0.0
2014-Aug-15 19:33N 46°12' W 123°48'0 0.0
2014-Aug-15 18:33N 46°12' W 123°48'0 0.0
2014-Aug-15 17:33N 46°12' W 123°48'0 0.0
2014-Aug-15 16:33N 46°12' W 123°48'0 0.0
2014-Aug-15 15:33N 46°12' W 123°48'0 0.0
2014-Aug-15 14:33N 46°12' W 123°48'0 0.0
2014-Aug-15 13:33N 46°12' W 123°48'0 0.0
2014-Aug-15 12:33N 46°12' W 123°48'0 0.0
2014-Aug-15 11:33N 46°12' W 123°48'0 0.0
2014-Aug-15 10:33N 46°12' W 123°48'0 0.0
2014-Aug-15 09:33N 46°12' W 123°48'0 0.0
2014-Aug-15 08:33N 46°12' W 123°48'0 0.0
2014-Aug-15 07:33N 46°12' W 123°48'0 0.0
2014-Aug-15 06:33N 46°12' W 123°48'0 0.0
2014-Aug-15 05:33N 46°12' W 123°48'0 0.0
2014-Aug-15 04:33N 46°12' W 123°48'0 0.0
2014-Aug-15 03:33N 46°12' W 123°48'0 0.0
2014-Aug-15 02:33N 46°12' W 123°48'0 0.0
2014-Aug-15 01:33N 46°12' W 123°48'0 0.0
2014-Aug-15 00:33N 46°12' W 123°48'0 0.0
2014-Aug-14 23:33N 46°12' W 123°48'0 0.0
2014-Aug-14 22:33N 46°12' W 123°48'0 0.0
2014-Aug-14 21:33N 46°12' W 123°48'0 0.0
2014-Aug-14 20:34N 46°12' W 123°48'2 1.5
2014-Aug-14 19:34N 46°12' W 123°50'1 0.8
2014-Aug-14 18:31N 46°11' W 123°51'0 0.0
2014-Aug-14 17:31N 46°11' W 123°51'0 0.0
2014-Aug-14 16:31N 46°11' W 123°51'0 0.0
2014-Aug-14 15:31N 46°11' W 123°51'0 0.0
2014-Aug-14 14:31N 46°11' W 123°51'0 0.0
2014-Aug-14 13:31N 46°11' W 123°51'0 0.0
2014-Aug-14 12:31N 46°11' W 123°51'0 0.0
2014-Aug-14 11:31N 46°11' W 123°51'2 2.4
2014-Aug-14 10:32N 46°12' W 123°48'0 0.0
2014-Aug-14 09:32N 46°12' W 123°48'0 0.0
2014-Aug-14 08:32N 46°12' W 123°48'0 0.0
2014-Aug-14 07:32N 46°12' W 123°48'0 0.0
2014-Aug-14 06:32N 46°12' W 123°48'0 0.0
2014-Aug-14 05:32N 46°12' W 123°48'0 0.0
2014-Aug-14 04:32N 46°12' W 123°48'0 0.0
2014-Aug-14 03:32N 46°12' W 123°48'0 0.0
2014-Aug-14 02:32N 46°12' W 123°48'0 0.0
2014-Aug-14 01:32N 46°12' W 123°48'0 0.0
2014-Aug-14 00:32N 46°12' W 123°48'6 5.7
2014-Aug-13 23:33N 46°12' W 123°56'7 7.5
2014-Aug-13 22:33N 46°15' W 124°06'5 4.7
2014-Aug-13 21:33N 46°16' W 124°13'5 4.9
2014-Aug-13 20:33N 46°19' W 124°19'3 2.8
2014-Aug-13 19:33N 46°20' W 124°22'3 2.6
2014-Aug-13 18:33N 46°23' W 124°24'3 2.6
2014-Aug-13 17:33N 46°25' W 124°24'1 1.3
2014-Aug-13 16:33N 46°24' W 124°23'6 5.3
2014-Aug-13 15:28N 46°19' W 124°22'2 2.5
2014-Aug-13 14:33N 46°19' W 124°25'3 2.5
2014-Aug-13 13:33N 46°20' W 124°29'3 2.6
2014-Aug-13 12:33N 46°21' W 124°32'2 1.0
2014-Aug-13 10:25N 46°23' W 124°33'1 0.8
2014-Aug-13 09:30N 46°22' W 124°33'1 0.8
2014-Aug-13 08:21N 46°22' W 124°33'9 2.9
2014-Aug-13 05:19N 46°20' W 124°21'0 0.4
2014-Aug-13 04:31N 46°20' W 124°21'0 0.4
2014-Aug-13 03:24N 46°19' W 124°22'6 6.9
2014-Aug-13 02:33N 46°14' W 124°20'2 2.3
2014-Aug-13 01:33N 46°12' W 124°20'3 2.6
2014-Aug-13 00:33N 46°09' W 124°20'3 2.6
2014-Aug-12 23:33N 46°06' W 124°19'2 2.5
2014-Aug-12 22:33N 46°04' W 124°19'0 0.5
2014-Aug-12 21:31N 46°04' W 124°19'1 0.8
2014-Aug-12 20:33N 46°05' W 124°18'3 2.6
2014-Aug-12 19:33N 46°08' W 124°18'3 2.7
2014-Aug-12 18:33N 46°10' W 124°19'3 2.6
2014-Aug-12 17:33N 46°13' W 124°19'5 5.4
2014-Aug-12 16:32N 46°18' W 124°20'2 2.1
2014-Aug-12 15:33N 46°20' W 124°22'3 2.6
2014-Aug-12 14:33N 46°22' W 124°23'  
2014-Aug-10 06:28N 46°15' W 124°02'5 5.3
2014-Aug-10 05:33N 46°13' W 123°57'4 3.7
2014-Aug-10 04:31N 46°11' W 123°51'0 0.0
2014-Aug-10 03:31N 46°11' W 123°51'0 0.0
2014-Aug-10 02:31N 46°11' W 123°51'2 2.4
2014-Aug-10 01:32N 46°12' W 123°48'0 0.0
2014-Aug-10 00:32N 46°12' W 123°48'0 0.0
2014-Aug-09 23:32N 46°12' W 123°48'0 0.0
2014-Aug-09 22:29N 46°12' W 123°48'0 0.0
2014-Aug-09 21:32N 46°12' W 123°48'0 0.0
2014-Aug-09 20:32N 46°12' W 123°48'0 0.0
2014-Aug-09 19:32N 46°12' W 123°48'0 0.0
2014-Aug-09 18:32N 46°12' W 123°48'0 0.0
2014-Aug-09 17:32N 46°12' W 123°48'0 0.0
2014-Aug-09 16:32N 46°12' W 123°48'0 0.0
2014-Aug-09 15:32N 46°12' W 123°48'0 0.0
2014-Aug-09 14:32N 46°12' W 123°48'0 0.0
2014-Aug-09 13:32N 46°12' W 123°48'0 0.0
2014-Aug-09 12:32N 46°12' W 123°48'0 0.0
2014-Aug-09 11:32N 46°12' W 123°48'0 0.0
2014-Aug-09 10:32N 46°12' W 123°48'0 0.0
2014-Aug-09 09:32N 46°12' W 123°48'0 0.0
2014-Aug-09 08:29N 46°12' W 123°48'0 0.0
2014-Aug-09 07:32N 46°12' W 123°48'0 0.0
2014-Aug-09 06:32N 46°12' W 123°48'0 0.0
2014-Aug-09 05:32N 46°12' W 123°48'0 0.0
2014-Aug-09 04:32N 46°12' W 123°48'0 0.0
2014-Aug-09 03:32N 46°12' W 123°48'0 0.0
2014-Aug-09 02:32N 46°12' W 123°48'0 0.0
2014-Aug-09 01:32N 46°12' W 123°48'0 0.0
2014-Aug-09 00:32N 46°12' W 123°48'0 0.0
2014-Aug-08 23:32N 46°12' W 123°48'0 0.0
2014-Aug-08 22:33N 46°12' W 123°48'0 0.0
2014-Aug-08 21:32N 46°12' W 123°48'0 0.0
2014-Aug-08 20:33N 46°12' W 123°48'0 0.0
2014-Aug-08 19:33N 46°12' W 123°48'0 0.0
2014-Aug-08 18:33N 46°12' W 123°48'0 0.0
2014-Aug-08 17:33N 46°12' W 123°48'0 0.0
2014-Aug-08 16:33N 46°12' W 123°48'0 0.0
2014-Aug-08 15:33N 46°12' W 123°48'0 0.0
2014-Aug-08 14:33N 46°12' W 123°48'0 0.0
2014-Aug-08 13:33N 46°12' W 123°48'0 0.0
2014-Aug-08 12:33N 46°12' W 123°48'0 0.0
2014-Aug-08 11:33N 46°12' W 123°48'0 0.0
2014-Aug-08 10:33N 46°12' W 123°48'0 0.0
2014-Aug-08 09:33N 46°12' W 123°48'0 0.0
2014-Aug-08 08:33N 46°12' W 123°48'0 0.0
2014-Aug-08 07:33N 46°12' W 123°48'0 0.0
2014-Aug-08 06:33N 46°12' W 123°48'0 0.0
2014-Aug-08 05:33N 46°12' W 123°48'0 0.0
2014-Aug-08 04:33N 46°12' W 123°48'  
Track history (hours):
 
Tides and Currents Weather Stations Pressure Air Temp Water Temp Dewpoint Dewpoint Depression Visibility Wind Speed Wind Dir Waves Ship Positions

Ocean Beaut

More information available from US FCC via Universal Licensing System.

Last reported at 2014-Aug-18 04:28 UTC. Time now 2014-Aug-28 13:28 UTC.
Position N 46°21' W 124°14'.
Warning: this ship's position is 10 days out of date.

Length 20 m.

Type: Fishing. MMSI: 367187080.

Date/timePositionNaut miles runAvg speedWind from/ knotsBaromVisibWave heightAir tempDewpointWater temp
2014-Aug-18 04:28N 46°21' W 124°14'9 6.7
2014-Aug-18 03:12N 46°15' W 124°06'5 7.3
2014-Aug-18 02:33N 46°14' W 123°59'6 6.0
2014-Aug-18 01:33N 46°11' W 123°51'0 0.0
2014-Aug-18 00:30N 46°11' W 123°51'2 0.4
2014-Aug-17 18:33N 46°12' W 123°48'0 0.0
2014-Aug-17 17:33N 46°12' W 123°48'0 0.0
2014-Aug-17 16:33N 46°12' W 123°48'0 0.0
2014-Aug-17 15:33N 46°12' W 123°48'0 0.0
2014-Aug-17 14:33N 46°12' W 123°48'0 0.0
2014-Aug-17 13:33N 46°12' W 123°48'0 0.0
2014-Aug-17 12:33N 46°12' W 123°48'0 0.0
2014-Aug-17 11:33N 46°12' W 123°48'0 0.0
2014-Aug-17 10:33N 46°12' W 123°48'0 0.0
2014-Aug-17 09:33N 46°12' W 123°48'0 0.0
2014-Aug-17 08:33N 46°12' W 123°48'0 0.0
2014-Aug-17 07:33N 46°12' W 123°48'0 0.0
2014-Aug-17 06:33N 46°12' W 123°48'0 0.0
2014-Aug-17 05:30N 46°12' W 123°48'0 0.0
2014-Aug-17 04:33N 46°12' W 123°48'0 0.0
2014-Aug-17 03:33N 46°12' W 123°48'0 0.0
2014-Aug-17 02:33N 46°12' W 123°48'0 0.0
2014-Aug-17 01:33N 46°12' W 123°48'0 0.0
2014-Aug-17 00:33N 46°12' W 123°48'0 0.0
2014-Aug-16 23:33N 46°12' W 123°48'0 0.0
2014-Aug-16 22:33N 46°12' W 123°48'0 0.0
2014-Aug-16 21:33N 46°12' W 123°48'0 0.0
2014-Aug-16 20:33N 46°12' W 123°48'0 0.0
2014-Aug-16 19:33N 46°12' W 123°48'0 0.0
2014-Aug-16 18:33N 46°12' W 123°48'0 0.0
2014-Aug-16 17:33N 46°12' W 123°48'0 0.0
2014-Aug-16 16:33N 46°12' W 123°48'0 0.0
2014-Aug-16 15:33N 46°12' W 123°48'0 0.0
2014-Aug-16 14:33N 46°12' W 123°48'0 0.0
2014-Aug-16 13:33N 46°12' W 123°48'0 0.0
2014-Aug-16 12:33N 46°12' W 123°48'0 0.0
2014-Aug-16 11:33N 46°12' W 123°48'0 0.0
2014-Aug-16 10:33N 46°12' W 123°48'0 0.0
2014-Aug-16 09:33N 46°12' W 123°48'0 0.0
2014-Aug-16 08:33N 46°12' W 123°48'0 0.0
2014-Aug-16 07:33N 46°12' W 123°48'0 0.0
2014-Aug-16 06:30N 46°12' W 123°48'0 0.0
2014-Aug-16 05:33N 46°12' W 123°48'0 0.0
2014-Aug-16 04:33N 46°12' W 123°48'0 0.0
2014-Aug-16 03:33N 46°12' W 123°48'0 0.0
2014-Aug-16 02:33N 46°12' W 123°48'0 0.0
2014-Aug-16 01:33N 46°12' W 123°48'0 0.0
2014-Aug-16 00:33N 46°12' W 123°48'0 0.0
2014-Aug-15 23:33N 46°12' W 123°48'0 0.0
2014-Aug-15 22:33N 46°12' W 123°48'0 0.0
2014-Aug-15 21:33N 46°12' W 123°48'0 0.0
2014-Aug-15 20:33N 46°12' W 123°48'0 0.0
2014-Aug-15 19:33N 46°12' W 123°48'0 0.0
2014-Aug-15 18:33N 46°12' W 123°48'0 0.0
2014-Aug-15 17:33N 46°12' W 123°48'0 0.0
2014-Aug-15 16:33N 46°12' W 123°48'0 0.0
2014-Aug-15 15:33N 46°12' W 123°48'0 0.0
2014-Aug-15 14:33N 46°12' W 123°48'0 0.0
2014-Aug-15 13:33N 46°12' W 123°48'0 0.0
2014-Aug-15 12:33N 46°12' W 123°48'0 0.0
2014-Aug-15 11:33N 46°12' W 123°48'0 0.0
2014-Aug-15 10:33N 46°12' W 123°48'0 0.0
2014-Aug-15 09:33N 46°12' W 123°48'0 0.0
2014-Aug-15 08:33N 46°12' W 123°48'0 0.0
2014-Aug-15 07:33N 46°12' W 123°48'0 0.0
2014-Aug-15 06:33N 46°12' W 123°48'0 0.0
2014-Aug-15 05:33N 46°12' W 123°48'0 0.0
2014-Aug-15 04:33N 46°12' W 123°48'0 0.0
2014-Aug-15 03:33N 46°12' W 123°48'0 0.0
2014-Aug-15 02:33N 46°12' W 123°48'0 0.0
2014-Aug-15 01:33N 46°12' W 123°48'0 0.0
2014-Aug-15 00:33N 46°12' W 123°48'0 0.0
2014-Aug-14 23:33N 46°12' W 123°48'0 0.0
2014-Aug-14 22:33N 46°12' W 123°48'0 0.0
2014-Aug-14 21:33N 46°12' W 123°48'0 0.0
2014-Aug-14 20:34N 46°12' W 123°48'2 1.5
2014-Aug-14 19:34N 46°12' W 123°50'1 0.8
2014-Aug-14 18:31N 46°11' W 123°51'0 0.0
2014-Aug-14 17:31N 46°11' W 123°51'0 0.0
2014-Aug-14 16:31N 46°11' W 123°51'0 0.0
2014-Aug-14 15:31N 46°11' W 123°51'0 0.0
2014-Aug-14 14:31N 46°11' W 123°51'0 0.0
2014-Aug-14 13:31N 46°11' W 123°51'0 0.0
2014-Aug-14 12:31N 46°11' W 123°51'0 0.0
2014-Aug-14 11:31N 46°11' W 123°51'2 2.4
2014-Aug-14 10:32N 46°12' W 123°48'0 0.0
2014-Aug-14 09:32N 46°12' W 123°48'0 0.0
2014-Aug-14 08:32N 46°12' W 123°48'0 0.0
2014-Aug-14 07:32N 46°12' W 123°48'0 0.0
2014-Aug-14 06:32N 46°12' W 123°48'0 0.0
2014-Aug-14 05:32N 46°12' W 123°48'0 0.0
2014-Aug-14 04:32N 46°12' W 123°48'0 0.0
2014-Aug-14 03:32N 46°12' W 123°48'0 0.0
2014-Aug-14 02:32N 46°12' W 123°48'0 0.0
2014-Aug-14 01:32N 46°12' W 123°48'0 0.0
2014-Aug-14 00:32N 46°12' W 123°48'6 5.7
2014-Aug-13 23:33N 46°12' W 123°56'7 7.5
2014-Aug-13 22:33N 46°15' W 124°06'5 4.7
2014-Aug-13 21:33N 46°16' W 124°13'5 4.9
2014-Aug-13 20:33N 46°19' W 124°19'3 2.8
2014-Aug-13 19:33N 46°20' W 124°22'3 2.6
2014-Aug-13 18:33N 46°23' W 124°24'3 2.6
2014-Aug-13 17:33N 46°25' W 124°24'1 1.3
2014-Aug-13 16:33N 46°24' W 124°23'6 5.3
2014-Aug-13 15:28N 46°19' W 124°22'2 2.5
2014-Aug-13 14:33N 46°19' W 124°25'3 2.5
2014-Aug-13 13:33N 46°20' W 124°29'3 2.6
2014-Aug-13 12:33N 46°21' W 124°32'2 1.0
2014-Aug-13 10:25N 46°23' W 124°33'1 0.8
2014-Aug-13 09:30N 46°22' W 124°33'1 0.8
2014-Aug-13 08:21N 46°22' W 124°33'9 2.9
2014-Aug-13 05:19N 46°20' W 124°21'0 0.4
2014-Aug-13 04:31N 46°20' W 124°21'0 0.4
2014-Aug-13 03:24N 46°19' W 124°22'6 6.9
2014-Aug-13 02:33N 46°14' W 124°20'2 2.3
2014-Aug-13 01:33N 46°12' W 124°20'3 2.6
2014-Aug-13 00:33N 46°09' W 124°20'3 2.6
2014-Aug-12 23:33N 46°06' W 124°19'2 2.5
2014-Aug-12 22:33N 46°04' W 124°19'0 0.5
2014-Aug-12 21:31N 46°04' W 124°19'1 0.8
2014-Aug-12 20:33N 46°05' W 124°18'3 2.6
2014-Aug-12 19:33N 46°08' W 124°18'3 2.7
2014-Aug-12 18:33N 46°10' W 124°19'3 2.6
2014-Aug-12 17:33N 46°13' W 124°19'5 5.4
2014-Aug-12 16:32N 46°18' W 124°20'2 2.1
2014-Aug-12 15:33N 46°20' W 124°22'3 2.6
2014-Aug-12 14:33N 46°22' W 124°23'  
2014-Aug-10 06:28N 46°15' W 124°02'5 5.3
2014-Aug-10 05:33N 46°13' W 123°57'4 3.7
2014-Aug-10 04:31N 46°11' W 123°51'0 0.0
2014-Aug-10 03:31N 46°11' W 123°51'0 0.0
2014-Aug-10 02:31N 46°11' W 123°51'2 2.4
2014-Aug-10 01:32N 46°12' W 123°48'0 0.0
2014-Aug-10 00:32N 46°12' W 123°48'0 0.0
2014-Aug-09 23:32N 46°12' W 123°48'0 0.0
2014-Aug-09 22:29N 46°12' W 123°48'0 0.0
2014-Aug-09 21:32N 46°12' W 123°48'0 0.0
2014-Aug-09 20:32N 46°12' W 123°48'0 0.0
2014-Aug-09 19:32N 46°12' W 123°48'0 0.0
2014-Aug-09 18:32N 46°12' W 123°48'0 0.0
2014-Aug-09 17:32N 46°12' W 123°48'0 0.0
2014-Aug-09 16:32N 46°12' W 123°48'0 0.0
2014-Aug-09 15:32N 46°12' W 123°48'0 0.0
2014-Aug-09 14:32N 46°12' W 123°48'0 0.0
2014-Aug-09 13:32N 46°12' W 123°48'0 0.0
2014-Aug-09 12:32N 46°12' W 123°48'0 0.0
2014-Aug-09 11:32N 46°12' W 123°48'0 0.0
2014-Aug-09 10:32N 46°12' W 123°48'0 0.0
2014-Aug-09 09:32N 46°12' W 123°48'0 0.0
2014-Aug-09 08:29N 46°12' W 123°48'0 0.0
2014-Aug-09 07:32N 46°12' W 123°48'0 0.0
2014-Aug-09 06:32N 46°12' W 123°48'0 0.0
2014-Aug-09 05:32N 46°12' W 123°48'0 0.0
2014-Aug-09 04:32N 46°12' W 123°48'0 0.0
2014-Aug-09 03:32N 46°12' W 123°48'0 0.0
2014-Aug-09 02:32N 46°12' W 123°48'0 0.0
2014-Aug-09 01:32N 46°12' W 123°48'0 0.0
2014-Aug-09 00:32N 46°12' W 123°48'0 0.0
2014-Aug-08 23:32N 46°12' W 123°48'0 0.0
2014-Aug-08 22:33N 46°12' W 123°48'0 0.0
2014-Aug-08 21:32N 46°12' W 123°48'0 0.0
2014-Aug-08 20:33N 46°12' W 123°48'0 0.0
2014-Aug-08 19:33N 46°12' W 123°48'0 0.0
2014-Aug-08 18:33N 46°12' W 123°48'0 0.0
2014-Aug-08 17:33N 46°12' W 123°48'0 0.0
2014-Aug-08 16:33N 46°12' W 123°48'0 0.0
2014-Aug-08 15:33N 46°12' W 123°48'0 0.0
2014-Aug-08 14:33N 46°12' W 123°48'0 0.0
2014-Aug-08 13:33N 46°12' W 123°48'0 0.0
2014-Aug-08 12:33N 46°12' W 123°48'0 0.0
2014-Aug-08 11:33N 46°12' W 123°48'0 0.0
2014-Aug-08 10:33N 46°12' W 123°48'0 0.0
2014-Aug-08 09:33N 46°12' W 123°48'0 0.0
2014-Aug-08 08:33N 46°12' W 123°48'0 0.0
2014-Aug-08 07:33N 46°12' W 123°48'0 0.0
2014-Aug-08 06:33N 46°12' W 123°48'0 0.0
2014-Aug-08 05:33N 46°12' W 123°48'0 0.0
2014-Aug-08 04:33N 46°12' W 123°48'  

Dump ship's entire track history